Time;durP1;ratioP1;P1;durP2;ratioP2;P2;SDS_P1;SDS_P2;PMS_P1;PMS_P2;Temp;Humidity;BMP_temperature;BMP_pressure;BME280_temperature;BME280_humidity;BME280_pressure;Samples;Min_cycle;Max_cycle;Signal;HPM_P1;HPM_P2
2021/10/29 00:00:13;;;;;;;82.80;43.70;;;;;;;5.48;82.68;98996.26;114026;1198;25022;-81
2021/10/29 00:03:08;;;;;;;73.90;42.60;;;;;;;5.39;82.48;98998.10;113966;1200;137960;-81
2021/10/29 00:05:35;;;;;;;76.40;41.70;;;;;;;5.32;82.78;99000.13;113892;1205;22545;-82
2021/10/29 00:08:03;;;;;;;78.20;44.70;;;;;;;5.29;83.13;98995.84;113846;1205;137410;-81
2021/10/29 00:10:31;;;;;;;79.70;45.70;;;;;;;5.27;83.05;98997.64;114054;1205;22430;-81
2021/10/29 00:12:58;;;;;;;80.30;45.00;;;;;;;5.27;83.20;99004.91;114245;1200;138542;-81
2021/10/29 00:15:24;;;;;;;75.20;43.00;;;;;;;5.28;83.46;98996.83;114012;1204;23013;-81
2021/10/29 00:17:50;;;;;;;78.00;45.30;;;;;;;5.31;83.55;98993.73;114132;1200;24043;-82
2021/10/29 00:20:17;;;;;;;81.50;46.50;;;;;;;5.33;83.64;98993.46;113547;1205;138318;-83
2021/10/29 00:22:43;;;;;;;77.40;45.80;;;;;;;5.31;83.54;98993.35;113540;1199;23263;-83
2021/10/29 00:25:10;;;;;;;85.10;46.10;;;;;;;5.31;83.74;98991.23;113914;1193;138380;-82
2021/10/29 00:27:36;;;;;;;83.10;47.20;;;;;;;5.33;83.76;98990.42;113175;1206;22291;-82
2021/10/29 00:30:05;;;;;;;86.10;46.10;;;;;;;5.35;83.73;98994.41;113780;1205;22556;-82
2021/10/29 00:32:32;;;;;;;77.80;44.50;;;;;;;5.33;83.83;98989.67;114511;1205;137564;-83
2021/10/29 00:34:58;;;;;;;82.30;46.00;;;;;;;5.34;83.54;98995.23;113699;1201;24175;-82
2021/10/29 00:37:24;;;;;;;86.50;47.00;;;;;;;5.28;83.11;98991.64;113697;1205;137645;-82
2021/10/29 00:39:50;;;;;;;92.00;47.30;;;;;;;5.23;83.33;98992.23;113889;1205;22456;-83
2021/10/29 00:42:17;;;;;;;86.30;44.90;;;;;;;5.21;83.54;98988.92;114741;1205;24081;-82
2021/10/29 00:44:43;;;;;;;77.00;43.70;;;;;;;5.19;83.60;98989.73;114257;1200;138388;-83
2021/10/29 00:47:10;;;;;;;79.00;45.40;;;;;;;5.20;83.80;98987.75;113517;1199;22437;-82
2021/10/29 00:49:36;;;;;;;85.50;45.80;;;;;;;5.18;83.50;98985.13;113102;1205;137897;-84
2021/10/29 00:52:02;;;;;;;84.90;47.40;;;;;;;5.10;82.93;98983.48;113450;1205;27653;-83
2021/10/29 00:54:29;;;;;;;80.60;45.80;;;;;;;5.03;83.24;98985.60;113232;1201;25151;-82
2021/10/29 00:56:56;;;;;;;86.10;46.40;;;;;;;4.98;83.52;98982.90;113400;1206;138101;-83
2021/10/29 00:59:22;;;;;;;82.70;43.10;;;;;;;4.98;83.73;98980.74;113530;1206;22443;-82
2021/10/29 01:01:49;;;;;;;79.20;45.50;;;;;;;4.96;83.91;98977.00;113566;1206;137461;-82
2021/10/29 01:04:16;;;;;;;80.20;44.20;;;;;;;4.95;83.87;98978.19;114278;1198;22421;-82
2021/10/29 01:06:44;;;;;;;78.40;45.30;;;;;;;4.96;84.09;98977.20;113747;1206;25264;-82
2021/10/29 01:09:11;;;;;;;78.00;45.10;;;;;;;4.94;83.93;98972.87;113907;1198;138244;-82
2021/10/29 01:11:41;;;;;;;80.50;42.70;;;;;;;4.94;83.89;98971.92;113808;1205;23944;-81
2021/10/29 01:14:07;;;;;;;82.50;43.60;;;;;;;4.93;84.00;98968.50;113524;1199;137486;-82
2021/10/29 01:16:34;;;;;;;81.20;43.60;;;;;;;4.94;84.38;98963.08;113568;1205;22651;-82
2021/10/29 01:19:00;;;;;;;86.10;44.90;;;;;;;4.95;84.30;98960.78;113725;1200;137669;-82
2021/10/29 01:21:26;;;;;;;78.50;43.30;;;;;;;4.95;84.34;98962.54;113568;1205;22439;-82
2021/10/29 01:23:53;;;;;;;74.40;42.20;;;;;;;4.94;84.11;98959.21;114024;1198;23333;-82
2021/10/29 01:26:19;;;;;;;78.40;41.80;;;;;;;4.94;84.17;98952.45;114370;1200;138402;-82
2021/10/29 01:28:46;;;;;;;75.40;43.90;;;;;;;4.92;83.68;98955.78;113644;1205;24138;-83
2021/10/29 01:31:15;;;;;;;79.00;42.30;;;;;;;4.88;83.78;98953.63;113794;1206;138080;-82
2021/10/29 01:33:42;;;;;;;79.30;45.00;;;;;;;4.83;83.70;98952.11;113716;1206;22422;-82
2021/10/29 01:36:09;;;;;;;77.40;44.00;;;;;;;4.78;83.69;98947.09;114039;1198;22462;-82
2021/10/29 01:38:40;;;;;;;72.50;41.40;;;;;;;4.75;83.62;98947.59;113892;1205;138638;-83
2021/10/29 01:41:08;;;;;;;73.10;41.80;;;;;;;4.72;83.93;98941.69;113226;1206;23218;-82
2021/10/29 01:43:48;;;;;;;82.50;46.30;;;;;;;4.71;83.92;98941.72;113917;1205;137910;-82
2021/10/29 01:46:15;;;;;;;80.20;47.30;;;;;;;4.67;84.52;98938.36;113234;1206;22495;-82
2021/10/29 01:48:48;;;;;;;87.70;49.90;;;;;;;4.66;84.89;98936.65;113567;1205;22439;-82
2021/10/29 01:51:15;;;;;;;75.30;44.90;;;;;;;4.69;85.14;98927.21;114183;1206;137940;-82
2021/10/29 01:53:42;;;;;;;79.00;45.60;;;;;;;4.73;84.93;98929.62;113780;1206;22483;-82
2021/10/29 01:56:08;;;;;;;82.50;46.30;;;;;;;4.74;84.98;98927.84;113371;1198;137453;-83
2021/10/29 01:58:35;;;;;;;85.40;47.30;;;;;;;4.74;84.98;98927.45;113748;1184;24018;-83
2021/10/29 02:01:03;;;;;;;83.10;45.50;;;;;;;4.74;84.83;98926.67;113272;1206;138350;-83
2021/10/29 02:03:29;;;;;;;85.90;45.20;;;;;;;4.74;84.89;98926.63;114278;1200;24040;-83
2021/10/29 02:05:55;;;;;;;86.10;44.30;;;;;;;4.74;84.60;98924.05;113903;1198;25165;-83
2021/10/29 02:08:24;;;;;;;85.50;48.30;;;;;;;4.74;84.67;98920.65;113328;1205;137404;-82
2021/10/29 02:10:51;;;;;;;86.60;46.00;;;;;;;4.74;84.84;98918.83;113623;1205;22528;-82
2021/10/29 02:13:19;;;;;;;86.20;47.50;;;;;;;4.73;84.66;98917.12;113985;1205;137552;-83
2021/10/29 02:15:46;;;;;;;82.20;45.10;;;;;;;4.71;84.65;98909.80;114431;1206;25195;-83
2021/10/29 02:18:14;;;;;;;76.70;44.70;;;;;;;4.73;84.76;98907.29;113614;1205;22497;-82
2021/10/29 02:20:40;;;;;;;76.40;43.50;;;;;;;4.72;84.53;98906.65;113809;1206;138023;-83
2021/10/29 02:23:06;;;;;;;84.50;45.20;;;;;;;4.65;83.80;98908.67;115192;1206;25817;-83
2021/10/29 02:25:32;;;;;;;80.30;45.10;;;;;;;4.55;83.56;98909.92;114168;1200;137665;-83
2021/10/29 02:27:58;;;;;;;88.30;48.60;;;;;;;4.46;83.50;98905.32;114323;1205;23030;-83
2021/10/29 02:30:25;;;;;;;86.90;47.30;;;;;;;4.41;83.93;98905.28;113912;1206;22459;-83
2021/10/29 02:32:51;;;;;;;82.40;45.90;;;;;;;4.42;84.59;98903.42;114519;1205;137927;-83
2021/10/29 02:35:17;;;;;;;75.50;44.20;;;;;;;4.44;84.57;98905.27;115772;1198;22438;-83
2021/10/29 02:37:44;;;;;;;79.70;43.80;;;;;;;4.41;84.77;98902.58;113455;1206;137776;-82
2021/10/29 02:40:10;;;;;;;77.10;44.30;;;;;;;4.33;83.87;98897.76;113765;1205;22438;-83
2021/10/29 02:42:36;;;;;;;74.20;42.70;;;;;;;4.22;83.37;98898.97;115330;1190;22466;-83
2021/10/29 02:45:03;;;;;;;71.90;39.20;;;;;;;4.09;83.17;98898.73;113558;1205;137696;-83
2021/10/29 02:47:29;;;;;;;74.20;41.50;;;;;;;3.99;83.75;98901.04;113818;1198;22546;-83
2021/10/29 02:49:55;;;;;;;76.50;41.60;;;;;;;3.99;84.41;98901.98;114035;1205;138104;-83
2021/10/29 02:52:22;;;;;;;77.20;42.50;;;;;;;3.99;84.73;98900.58;113961;1206;22319;-83
2021/10/29 02:54:48;;;;;;;82.20;43.30;;;;;;;4.01;84.85;98901.77;114913;1205;22458;-83
2021/10/29 02:57:14;;;;;;;68.60;39.10;;;;;;;4.03;84.68;98900.79;113314;1199;138353;-83
2021/10/29 02:59:41;;;;;;;67.90;38.30;;;;;;;4.02;84.30;98894.88;113841;1206;22453;-83
2021/10/29 03:02:07;;;;;;;74.00;41.10;;;;;;;4.01;84.45;98890.85;115092;1198;137976;-82
2021/10/29 03:04:33;;;;;;;81.70;41.50;;;;;;;4.01;84.60;98892.13;116004;1206;22182;-83
2021/10/29 03:06:59;;;;;;;69.90;42.50;;;;;;;3.99;84.49;98888.22;113794;1198;138673;-82
2021/10/29 03:09:26;;;;;;;75.30;42.10;;;;;;;3.96;84.39;98892.49;113466;1205;23959;-83
2021/10/29 03:11:53;;;;;;;77.40;41.00;;;;;;;3.96;84.56;98888.69;115007;1205;22146;-83
2021/10/29 03:14:19;;;;;;;75.20;42.50;;;;;;;3.98;84.87;98891.52;113930;1206;137506;-82
2021/10/29 03:16:45;;;;;;;80.90;43.40;;;;;;;3.99;85.12;98891.01;115593;1198;22527;-82
2021/10/29 03:19:12;;;;;;;75.60;42.60;;;;;;;4.00;85.34;98889.43;113366;1198;137485;-82
2021/10/29 03:21:39;;;;;;;75.50;41.70;;;;;;;4.00;85.28;98892.29;114933;1205;22863;-83
2021/10/29 03:24:05;;;;;;;71.30;38.90;;;;;;;4.04;85.38;98893.00;114060;1205;22475;-82
2021/10/29 03:26:31;;;;;;;79.20;41.80;;;;;;;4.05;85.51;98891.80;113371;1198;137842;-82
2021/10/29 03:29:12;;;;;;;74.50;41.60;;;;;;;4.07;85.22;98893.19;114079;1205;22344;-82
2021/10/29 03:31:38;;;;;;;83.70;45.70;;;;;;;4.08;85.22;98892.13;114000;1205;137566;-82
2021/10/29 03:34:04;;;;;;;75.30;42.20;;;;;;;4.07;85.10;98888.13;113393;1206;22583;-82
2021/10/29 03:36:30;;;;;;;76.00;41.50;;;;;;;4.05;85.15;98885.05;114718;1198;22162;-82
2021/10/29 03:39:06;;;;;;;72.30;40.60;;;;;;;4.05;85.30;98886.24;114286;1206;138192;-82
2021/10/29 03:41:37;;;;;;;70.60;39.60;;;;;;;4.04;85.29;98885.98;115434;1205;22433;-82
2021/10/29 03:46:49;;;;;;;67.50;39.40;;;;;;;3.85;84.26;98885.05;113723;1199;22446;-82
2021/10/29 03:51:55;;;;;;;68.70;39.40;;;;;;;3.75;84.48;98887.92;114989;1206;23524;-82
2021/10/29 03:54:24;;;;;;;70.90;40.20;;;;;;;3.77;84.75;98882.51;113591;1206;23758;-82
2021/10/29 03:57:06;;;;;;;77.20;42.30;;;;;;;3.76;84.76;98882.18;114964;1199;138155;-82
2021/10/29 03:59:32;;;;;;;82.90;46.80;;;;;;;3.78;84.97;98885.19;113590;1205;23151;-82
2021/10/29 04:01:59;;;;;;;80.70;46.00;;;;;;;3.79;85.10;98885.27;114218;1205;137640;-83
2021/10/29 04:04:25;;;;;;;81.50;46.60;;;;;;;3.78;84.97;98884.85;114841;1206;24076;-82
2021/10/29 04:06:52;;;;;;;78.50;46.00;;;;;;;3.77;84.96;98883.52;114854;1200;23034;-82
2021/10/29 04:09:18;;;;;;;74.70;42.80;;;;;;;3.78;85.00;98884.23;114332;1198;137655;-82
2021/10/29 04:11:44;;;;;;;78.10;45.40;;;;;;;3.78;85.06;98882.57;114131;1205;22438;-82
2021/10/29 04:14:11;;;;;;;80.30;45.40;;;;;;;3.76;85.04;98880.89;113736;1198;137835;-82
2021/10/29 04:16:40;;;;;;;78.90;46.80;;;;;;;3.75;85.17;98879.68;114177;1206;23309;-82
2021/10/29 04:19:09;;;;;;;73.00;42.60;;;;;;;3.74;85.37;98879.96;113580;1198;138820;-82
2021/10/29 04:21:37;;;;;;;;;;;;;;;3.76;85.43;98878.70;114662;1206;23329;-82
2021/10/29 04:24:04;;;;;;;80.90;44.10;;;;;;;3.77;85.68;98876.46;115147;1191;22434;-82
2021/10/29 04:26:32;;;;;;;84.00;45.90;;;;;;;3.76;85.25;98875.80;113780;1200;137481;-82
2021/10/29 04:29:00;;;;;;;81.70;46.50;;;;;;;3.72;85.36;98875.67;114610;1198;26001;-81
2021/10/29 04:31:28;;;;;;;84.00;42.70;;;;;;;3.73;85.24;98877.14;113453;1205;138061;-81
2021/10/29 04:33:54;;;;;;;74.70;41.60;;;;;;;3.68;84.83;98871.39;114345;1206;22328;-82
2021/10/29 04:36:20;;;;;;;82.70;44.10;;;;;;;3.61;84.77;98875.09;115341;1205;26293;-81
2021/10/29 04:38:47;;;;;;;81.60;43.90;;;;;;;3.56;85.03;98880.00;113937;1198;137440;-81
2021/10/29 04:41:15;;;;;;;87.10;44.80;;;;;;;3.51;85.06;98877.91;113372;1205;22457;-82
2021/10/29 04:43:41;;;;;;;81.70;44.90;;;;;;;3.52;85.41;98878.58;113488;1206;138808;-82
2021/10/29 04:46:08;;;;;;;77.30;42.10;;;;;;;3.54;85.41;98878.79;113482;1205;24094;-82
2021/10/29 04:48:36;;;;;;;79.30;42.90;;;;;;;3.58;85.63;98876.91;115285;1200;22430;-82
2021/10/29 04:51:02;;;;;;;75.30;42.60;;;;;;;3.58;85.42;98876.34;114553;1205;137570;-82
2021/10/29 04:53:28;;;;;;;78.80;42.40;;;;;;;3.54;85.23;98872.73;115250;1190;22460;-82
2021/10/29 04:55:55;;;;;;;76.20;40.90;;;;;;;3.52;85.13;98875.86;113364;1205;137881;-82
2021/10/29 04:58:36;;;;;;;80.80;41.70;;;;;;;3.51;85.11;98873.11;114922;1198;22370;-83
2021/10/29 05:01:16;;;;;;;80.90;41.40;;;;;;;3.52;85.60;98876.43;114338;1205;138111;-82
2021/10/29 05:03:43;;;;;;;71.80;39.90;;;;;;;3.52;85.59;98871.14;115210;1198;22603;-82
2021/10/29 05:06:09;;;;;;;73.20;40.90;;;;;;;3.52;85.64;98867.38;114164;1198;25977;-82
2021/10/29 05:08:37;;;;;;;84.90;43.30;;;;;;;3.51;85.48;98867.85;113570;1198;137484;-82
2021/10/29 05:11:04;;;;;;;85.70;43.40;;;;;;;3.47;85.27;98862.97;115361;1205;22332;-82
2021/10/29 05:13:31;;;;;;;78.60;41.30;;;;;;;3.43;85.21;98864.94;115172;1206;138855;-82
2021/10/29 05:15:57;;;;;;;79.40;43.40;;;;;;;3.41;85.59;98863.88;114999;1206;23510;-82
2021/10/29 05:18:24;;;;;;;73.70;42.00;;;;;;;3.41;85.96;98863.48;115510;1199;23025;-83
2021/10/29 05:20:50;;;;;;;85.50;43.90;;;;;;;3.44;86.16;98861.77;115376;1199;137828;-82
2021/10/29 05:23:17;;;;;;;77.20;44.00;;;;;;;3.46;86.38;98860.95;114254;1205;22740;-82
2021/10/29 05:25:43;;;;;;;83.70;41.70;;;;;;;3.52;86.56;98862.56;114019;1199;138693;-82
2021/10/29 05:28:10;;;;;;;68.50;40.00;;;;;;;3.58;86.87;98862.75;113818;1198;22454;-82
2021/10/29 05:30:37;;;;;;;79.60;43.20;;;;;;;3.62;86.87;98862.94;113725;1205;22454;-83
2021/10/29 05:33:04;;;;;;;83.60;41.90;;;;;;;3.64;86.45;98863.82;113816;1206;138589;-82
2021/10/29 05:35:31;;;;;;;82.10;42.50;;;;;;;3.64;86.29;98866.02;113778;1205;22479;-82
2021/10/29 05:37:58;;;;;;;75.40;41.30;;;;;;;3.64;86.00;98864.02;114498;1206;138126;-82
2021/10/29 05:40:24;;;;;;;75.20;40.40;;;;;;;3.64;85.89;98863.48;113882;1198;22492;-82
2021/10/29 05:42:50;;;;;;;74.30;42.10;;;;;;;3.66;86.24;98863.58;113805;1205;24806;-82
2021/10/29 05:45:17;;;;;;;77.20;41.50;;;;;;;3.66;85.92;98865.86;113512;1206;137518;-82
2021/10/29 05:47:43;;;;;;;72.30;38.70;;;;;;;3.58;85.21;98867.73;113079;1205;25105;-84
2021/10/29 05:50:11;;;;;;;89.70;40.10;;;;;;;3.42;84.24;98862.02;113860;1200;138241;-82
2021/10/29 05:52:41;;;;;;;78.60;40.50;;;;;;;3.33;85.08;98861.09;113504;1205;22495;-82
2021/10/29 05:55:22;;;;;;;77.80;39.60;;;;;;;3.33;85.77;98865.11;113625;1205;137735;-82
2021/10/29 05:57:53;;;;;;;77.70;41.30;;;;;;;3.33;85.64;98865.11;113586;1200;23506;-83
2021/10/29 06:00:22;;;;;;;91.10;43.30;;;;;;;3.35;86.15;98866.59;113865;1200;22439;-82
2021/10/29 06:02:48;;;;;;;72.90;41.60;;;;;;;3.39;86.13;98870.38;115411;1205;137966;-82
2021/10/29 06:05:16;;;;;;;78.10;38.80;;;;;;;3.46;86.29;98868.71;114008;1205;22355;-83
2021/10/29 06:07:42;;;;;;;77.60;40.00;;;;;;;3.53;86.63;98866.59;115895;1199;138126;-83
2021/10/29 06:10:13;;;;;;;78.60;39.70;;;;;;;3.58;86.40;98872.38;115622;1191;22440;-83
2021/10/29 06:12:43;;;;;;;80.40;41.50;;;;;;;3.62;86.34;98874.83;114016;1205;24421;-83
2021/10/29 06:15:18;;;;;;;82.50;41.20;;;;;;;3.64;85.73;98877.31;113187;1199;137865;-85
2021/10/29 06:17:52;;;;;;;82.60;37.70;;;;;;;3.63;85.62;98876.31;113571;1206;24106;-84
2021/10/29 06:20:20;;;;;;;71.10;36.30;;;;;;;3.60;85.34;98881.00;113739;1198;137512;-82
2021/10/29 06:22:50;;;;;;;91.70;46.20;;;;;;;3.58;85.73;98888.60;114066;1205;24094;-83
2021/10/29 06:25:20;;;;;;;93.10;56.70;;;;;;;3.57;85.80;98887.19;113486;1198;137387;-82
2021/10/29 06:30:37;;;;;;;78.50;40.30;;;;;;;3.63;86.02;98893.52;115173;1199;24051;-83
2021/10/29 06:33:04;;;;;;;70.80;38.00;;;;;;;3.69;86.33;98895.28;115900;1206;138373;-83
2021/10/29 06:35:31;;;;;;;62.00;36.60;;;;;;;3.79;86.43;98900.94;114101;1205;24190;-82
2021/10/29 06:37:59;;;;;;;72.00;39.30;;;;;;;3.86;86.54;98904.88;113697;1205;138375;-82
2021/10/29 06:40:28;;;;;;;79.20;39.90;;;;;;;3.92;86.31;98909.13;113879;1199;24039;-83
2021/10/29 06:43:01;;;;;;;73.60;40.00;;;;;;;3.98;86.26;98906.20;114389;1205;138183;-83
2021/10/29 06:48:21;;;;;;;69.10;39.70;;;;;;;4.13;86.40;98906.59;114283;1205;24190;-82
2021/10/29 06:59:18;;;;;;;114.00;44.20;;;;;;;4.15;85.39;98910.23;113527;1205;22462;-82
2021/10/29 07:40:00;;;;;;;64.90;35.40;;;;;;;5.05;85.30;98917.92;115027;1205;22155;-79
2021/10/29 07:43:36;;;;;;;81.30;42.00;;;;;;;5.16;86.14;98919.56;114645;1200;22183;-82
2021/10/29 07:45:28;;;;;;;81.20;43.00;;;;;;;5.40;86.09;98915.55;113778;1206;137636;-82
2021/10/29 07:47:55;;;;;;;77.40;43.20;;;;;;;5.56;85.94;98912.17;113527;1207;24069;-82
2021/10/29 07:50:23;;;;;;;87.00;45.40;;;;;;;5.70;85.63;98913.30;114252;1206;137472;-82
2021/10/29 07:52:51;;;;;;;80.10;45.00;;;;;;;5.80;85.40;98915.75;114296;1200;22465;-82
2021/10/29 07:55:20;;;;;;;89.80;44.80;;;;;;;5.87;85.27;98914.08;114741;1205;139984;-82
2021/10/29 07:57:47;;;;;;;81.60;42.20;;;;;;;5.95;85.21;98907.25;114791;1205;22441;-82
2021/10/29 08:00:16;;;;;;;86.30;44.30;;;;;;;6.05;85.27;98904.00;113634;1205;24416;-82
2021/10/29 08:02:47;;;;;;;88.70;45.30;;;;;;;6.16;85.55;98906.56;114635;1199;137692;-82
2021/10/29 08:05:14;;;;;;;83.90;47.10;;;;;;;6.27;85.40;98909.36;113730;1205;23138;-81
2021/10/29 08:07:40;;;;;;;93.20;48.50;;;;;;;6.38;85.24;98907.91;112992;1206;138400;-82
2021/10/29 08:10:10;;;;;;;84.60;45.70;;;;;;;6.50;85.47;98905.92;113498;1205;22449;-82
2021/10/29 08:12:39;;;;;;;91.90;46.80;;;;;;;6.61;85.16;98902.94;113219;1205;25117;-82
2021/10/29 08:15:07;;;;;;;87.10;47.00;;;;;;;6.71;84.89;98904.56;113397;1199;137645;-82
2021/10/29 08:17:34;;;;;;;80.50;44.70;;;;;;;6.83;85.27;98912.96;114080;1206;23423;-82
2021/10/29 08:20:03;;;;;;;80.90;43.70;;;;;;;6.95;84.60;98906.86;113939;1205;137359;-82
2021/10/29 08:22:29;;;;;;;81.30;44.10;;;;;;;7.06;83.92;98905.77;113392;1198;23712;-82
2021/10/29 08:24:56;;;;;;;84.40;42.50;;;;;;;7.17;83.81;98904.96;114608;1204;22463;-82
2021/10/29 08:27:25;;;;;;;82.40;45.10;;;;;;;7.25;83.56;98906.10;115210;1206;137828;-82
2021/10/29 08:29:51;;;;;;;80.60;44.10;;;;;;;7.35;83.39;98902.95;114302;1205;22546;-82
2021/10/29 08:32:32;;;;;;;84.00;44.20;;;;;;;7.46;83.42;98899.27;113383;1199;137303;-82
2021/10/29 08:34:58;;;;;;;86.70;41.40;;;;;;;7.57;83.48;98894.45;113575;1207;24209;-82
2021/10/29 08:37:28;;;;;;;82.30;43.00;;;;;;;7.71;83.48;98895.27;113345;1201;138682;-82
2021/10/29 08:39:56;;;;;;;73.90;40.30;;;;;;;7.86;83.18;98894.94;113847;1206;22439;-82
2021/10/29 08:42:23;;;;;;;77.70;43.70;;;;;;;8.00;83.07;98896.15;113672;1206;22553;-82
2021/10/29 08:44:50;;;;;;;80.50;41.40;;;;;;;8.13;82.83;98898.00;114024;1199;137635;-82
2021/10/29 08:47:21;;;;;;;79.50;41.00;;;;;;;8.25;82.50;98898.51;114598;1199;25175;-82
2021/10/29 08:49:50;;;;;;;64.50;36.60;;;;;;;8.36;82.30;98897.39;114542;1206;138574;-82
2021/10/29 08:52:23;;;;;;;71.90;33.90;;;;;;;8.50;82.60;98902.12;113984;1192;22463;-82
2021/10/29 08:54:54;;;;;;;56.80;29.00;;;;;;;8.67;81.94;98897.27;114521;1199;22477;-82
2021/10/29 08:57:22;;;;;;;58.10;29.50;;;;;;;8.81;81.23;98898.81;114071;1205;137383;-82
2021/10/29 08:59:52;;;;;;;60.20;30.70;;;;;;;8.91;81.01;98894.40;114140;1199;22447;-82
2021/10/29 09:02:29;;;;;;;61.10;30.70;;;;;;;9.02;80.38;98888.11;113964;1205;137685;-82
2021/10/29 09:05:23;;;;;;;53.90;29.20;;;;;;;9.15;79.93;98893.35;113822;1200;22479;-82
2021/10/29 09:09:04;;;;;;;52.50;30.30;;;;;;;9.27;78.96;98891.17;113998;1205;137712;-82
2021/10/29 09:33:00;;;;;;;45.40;25.20;;;;;;;10.25;74.62;98890.41;114419;1205;137782;-82
2021/10/29 09:35:30;;;;;;;45.50;25.00;;;;;;;10.37;74.20;98886.89;114137;1198;22460;-82
2021/10/29 09:37:59;;;;;;;;;;;;;;;10.47;73.90;98884.63;114491;1206;137849;-82
2021/10/29 09:41:03;;;;;;;46.90;25.80;;;;;;;10.55;73.36;98883.62;114211;1206;24096;-82
2021/10/29 09:44:03;;;;;;;48.90;25.30;;;;;;;10.66;72.74;98885.90;114252;1199;137735;-82
2021/10/29 09:46:38;;;;;;;44.00;22.60;;;;;;;10.75;72.30;98882.28;113713;1206;25102;-82
2021/10/29 09:49:21;;;;;;;35.70;21.40;;;;;;;10.85;71.26;98882.39;113800;1206;24076;-83
2021/10/29 09:54:47;;;;;;;36.30;20.90;;;;;;;11.09;69.84;98883.11;113828;1200;22485;-82
2021/10/29 09:57:14;;;;;;;37.80;21.10;;;;;;;11.18;69.13;98877.75;113728;1206;138502;-82
2021/10/29 09:59:40;;;;;;;34.30;21.30;;;;;;;11.27;68.63;98876.64;113419;1205;22467;-82
2021/10/29 10:02:08;;;;;;;40.50;23.60;;;;;;;11.36;68.37;98877.81;113497;1205;137815;-82
2021/10/29 10:04:35;;;;;;;43.50;24.80;;;;;;;11.45;68.63;98876.42;113659;1200;22469;-82
2021/10/29 10:07:02;;;;;;;37.70;23.20;;;;;;;11.53;68.20;98870.06;114749;1200;22458;-81
2021/10/29 10:09:31;;;;;;;38.00;24.80;;;;;;;11.62;67.84;98878.41;114915;1199;139294;-82
2021/10/29 10:11:58;;;;;;;36.00;23.50;;;;;;;11.71;67.92;98873.35;113775;1205;25096;-82
2021/10/29 10:14:25;;;;;;;34.80;20.70;;;;;;;11.80;67.12;98873.52;113888;1206;138137;-82
2021/10/29 10:16:52;;;;;;;27.00;17.50;;;;;;;11.88;66.26;98870.71;113328;1203;30739;-82
2021/10/29 10:19:19;;;;;;;24.80;16.60;;;;;;;11.97;65.28;98867.34;114437;1206;22443;-82
2021/10/29 10:21:51;;;;;;;29.00;17.50;;;;;;;12.05;64.69;98868.64;114015;1206;137881;-82
2021/10/29 10:24:22;;;;;;;33.50;18.70;;;;;;;12.13;64.67;98866.44;113556;1205;25116;-81
2021/10/29 10:27:04;;;;;;;31.70;18.60;;;;;;;12.22;64.33;98864.31;114034;1205;138072;-82
2021/10/29 10:30:10;;;;;;;25.60;17.10;;;;;;;12.30;63.24;98864.02;114183;1206;22482;-81
2021/10/29 10:46:20;;;;;;;30.40;18.00;;;;;;;12.80;60.75;98847.05;113725;1201;24082;-82
2021/10/29 10:49:01;;;;;;;28.40;18.60;;;;;;;12.88;60.44;98848.73;113618;1205;22463;-81
2021/10/29 10:57:51;;;;;;;26.30;16.00;;;;;;;13.14;59.60;98839.24;113656;1207;138708;-82
2021/10/29 11:00:21;;;;;;;23.30;15.70;;;;;;;13.21;59.21;98836.61;113564;1199;23032;-81
2021/10/29 11:03:11;;;;;;;22.00;15.50;;;;;;;13.29;58.28;98836.73;113486;1207;138116;-81
2021/10/29 11:05:47;;;;;;;22.30;14.30;;;;;;;13.38;58.22;98830.63;113902;1200;25202;-82
2021/10/29 11:11:10;;;;;;;27.10;17.40;;;;;;;13.54;58.08;98828.30;113460;1205;25311;-82
2021/10/29 11:13:44;;;;;;;24.30;15.90;;;;;;;13.63;57.94;98824.30;113674;1205;138319;-82
2021/10/29 11:16:15;;;;;;;26.60;15.70;;;;;;;13.70;57.65;98824.39;113686;1200;22196;-82
2021/10/29 11:19:05;;;;;;;26.20;16.80;;;;;;;13.78;57.06;98821.73;114046;1206;22453;-82
2021/10/29 11:21:36;;;;;;;32.50;17.40;;;;;;;13.88;56.39;98821.02;113681;1205;137623;-82
2021/10/29 11:24:07;;;;;;;29.10;17.70;;;;;;;13.96;55.65;98822.20;114445;1206;22445;-82
2021/10/29 11:26:42;;;;;;;36.20;20.40;;;;;;;14.02;54.58;98819.13;113955;1200;137730;-82
2021/10/29 11:29:09;;;;;;;36.00;21.20;;;;;;;14.09;53.99;98817.23;113402;1206;22928;-82
2021/10/29 11:31:48;;;;;;;40.10;22.20;;;;;;;14.14;54.04;98812.08;114058;1205;138830;-82
2021/10/29 11:34:16;;;;;;;44.00;25.40;;;;;;;14.20;54.13;98807.59;114478;1203;22425;-82
2021/10/29 11:36:49;;;;;;;38.80;23.60;;;;;;;14.26;54.28;98801.50;114497;1200;23249;-82
2021/10/29 11:39:19;;;;;;;36.00;19.60;;;;;;;14.33;53.67;98801.73;113412;1206;137697;-82
2021/10/29 11:41:48;;;;;;;24.70;14.00;;;;;;;14.40;52.99;98799.33;114007;1206;23248;-82
2021/10/29 11:44:21;;;;;;;17.90;11.30;;;;;;;14.47;51.98;98794.39;113628;1205;137836;-82
2021/10/29 11:46:52;;;;;;;15.80;10.60;;;;;;;14.55;51.44;98793.85;113435;1203;23379;-82
2021/10/29 11:49:28;;;;;;;18.90;11.60;;;;;;;14.60;51.04;98790.19;113779;1206;22587;-82
2021/10/29 11:51:58;;;;;;;21.00;12.50;;;;;;;14.68;51.42;98786.02;113218;1206;137491;-82
2021/10/29 11:54:43;;;;;;;21.30;12.20;;;;;;;14.75;51.63;98785.41;113691;1206;22450;-81
2021/10/29 12:07:48;;;;;;;18.10;10.70;;;;;;;15.07;50.65;98769.95;114047;1206;138567;-81
2021/10/29 12:10:21;;;;;;;16.30;10.60;;;;;;;15.11;50.16;98764.55;113649;1200;22575;-82
2021/10/29 12:12:53;;;;;;;18.80;9.50;;;;;;;15.16;49.80;98764.80;114254;1205;23144;-82
2021/10/29 12:15:26;;;;;;;16.10;10.50;;;;;;;15.22;49.63;98758.45;113655;1206;137499;-82
2021/10/29 12:18:05;;;;;;;15.50;10.00;;;;;;;15.29;49.40;98759.91;113660;1200;25122;-82
2021/10/29 12:20:35;;;;;;;18.60;10.90;;;;;;;15.34;49.25;98756.80;112954;1205;138405;-82
2021/10/29 12:23:15;;;;;;;20.30;10.80;;;;;;;15.41;49.57;98755.98;113636;1203;22894;-81
2021/10/29 12:30:55;;;;;;;16.30;9.50;;;;;;;15.63;48.63;98755.17;113417;1205;22444;-81
2021/10/29 12:51:54;;;;;;;15.30;9.90;;;;;;;16.00;47.37;98744.45;114396;1199;22176;-81
2021/10/29 13:01:25;;;;;;;12.70;8.90;;;;;;;16.22;46.95;98734.34;113556;1200;22463;-81
2021/10/29 13:01:56;;;;;;;13.40;8.80;;;;;;;16.26;46.84;98729.95;113402;1206;137806;-82
2021/10/29 13:04:43;;;;;;;15.30;9.50;;;;;;;16.30;46.92;98730.88;114167;1206;22476;-82
2021/10/29 13:07:14;;;;;;;18.70;9.50;;;;;;;16.34;46.94;98729.66;113972;1200;24052;-83
2021/10/29 13:09:41;;;;;;;16.10;9.10;;;;;;;16.38;46.71;98727.67;113497;1205;137703;-81
2021/10/29 13:15:00;;;;;;;19.60;9.20;;;;;;;16.42;46.60;98717.67;113600;1194;138090;-84
2021/10/29 13:17:34;;;;;;;16.20;9.30;;;;;;;16.45;46.99;98715.75;114695;1206;24080;-82
2021/10/29 13:28:27;;;;;;;14.00;8.70;;;;;;;16.55;46.32;98702.70;113979;1200;137675;-82
2021/10/29 13:53:03;;;;;;;10.60;7.50;;;;;;;16.55;47.69;98685.64;113653;1205;23229;-82
2021/10/29 13:59:25;;;;;;;16.50;9.50;;;;;;;16.49;47.70;98680.44;113983;1206;137408;-82
2021/10/29 14:04:18;;;;;;;14.10;7.50;;;;;;;16.41;48.25;98683.59;113338;1207;137983;-82
2021/10/29 14:28:59;;;;;;;14.80;8.60;;;;;;;15.73;52.93;98680.31;113239;1206;22552;-82
2021/10/29 14:34:23;;;;;;;12.20;8.50;;;;;;;15.52;51.55;98675.29;113906;1206;137578;-82
2021/10/29 14:40:17;;;;;;;13.50;8.50;;;;;;;15.25;51.38;98677.64;113494;1206;137923;-83
2021/10/29 15:27:52;;;;;;;16.60;10.70;;;;;;;12.51;56.70;98661.79;113984;1206;137728;-81
2021/10/29 15:30:34;;;;;;;21.40;12.60;;;;;;;12.39;56.55;98666.48;113620;1206;23762;-83
2021/10/29 15:33:18;;;;;;;28.10;13.30;;;;;;;12.26;56.82;98662.05;113610;1200;138184;-82
2021/10/29 15:47:06;;;;;;;22.20;11.10;;;;;;;11.68;58.26;98659.90;113133;1206;123678;-82
2021/10/29 15:52:06;;;;;;;25.60;12.40;;;;;;;11.46;59.23;98661.01;113900;1200;138024;-83
2021/10/29 15:54:39;;;;;;;35.50;16.10;;;;;;;11.36;59.31;98664.10;113625;1205;22423;-82